createdAt,value
2017-10-21T00:01:17.476Z,5.23
2017-10-21T00:03:43.976Z,3.47
2017-10-21T00:06:10.339Z,4.50
2017-10-21T00:08:36.717Z,4.17
2017-10-21T00:11:03.076Z,3.00
2017-10-21T00:13:29.440Z,4.00
2017-10-21T00:15:55.779Z,2.90
2017-10-21T00:18:22.136Z,3.23
2017-10-21T00:20:48.484Z,3.77
2017-10-21T00:23:14.860Z,3.03
2017-10-21T00:25:41.960Z,2.43
2017-10-21T00:28:08.340Z,4.10
2017-10-21T00:30:34.675Z,2.73
2017-10-21T00:33:01.008Z,4.00
2017-10-21T00:35:28.879Z,3.10
2017-10-21T00:37:55.235Z,3.47
2017-10-21T00:40:22.376Z,3.10
2017-10-21T00:42:48.736Z,4.07
2017-10-21T00:45:15.121Z,3.03
2017-10-21T00:47:41.502Z,3.10
2017-10-21T00:50:07.880Z,3.00
2017-10-21T00:52:45.689Z,2.70
2017-10-21T00:55:12.090Z,3.90
2017-10-21T00:57:39.200Z,2.67
2017-10-21T01:00:06.349Z,2.97
2017-10-21T01:02:32.835Z,3.50
2017-10-21T01:04:59.232Z,2.50
2017-10-21T01:07:25.624Z,3.43
2017-10-21T01:09:52.094Z,2.70
2017-10-21T01:12:19.161Z,3.40
2017-10-21T01:14:45.540Z,3.17
2017-10-21T01:17:11.936Z,2.37
2017-10-21T01:19:38.332Z,3.90
2017-10-21T01:22:04.698Z,3.03
2017-10-21T01:24:31.112Z,2.80
2017-10-21T01:26:57.493Z,3.43
2017-10-21T01:29:23.866Z,3.63
2017-10-21T01:31:50.271Z,3.77
2017-10-21T01:34:16.645Z,2.57
2017-10-21T01:36:43.049Z,3.07
2017-10-21T01:39:09.388Z,3.20
2017-10-21T01:41:35.877Z,3.00
2017-10-21T01:44:02.963Z,2.27
2017-10-21T01:46:30.100Z,2.57
2017-10-21T01:48:57.300Z,2.50
2017-10-21T01:51:23.732Z,1.70
2017-10-21T01:53:50.125Z,2.67
2017-10-21T01:56:16.500Z,2.27
2017-10-21T01:58:43.693Z,2.20
2017-10-21T02:01:10.530Z,2.00
2017-10-21T02:03:37.726Z,3.23
2017-10-21T02:06:04.257Z,2.53
2017-10-21T02:08:31.396Z,2.50
2017-10-21T02:10:57.908Z,3.47
2017-10-21T02:13:24.347Z,3.50
2017-10-21T02:15:51.542Z,1.90
2017-10-21T02:18:17.973Z,2.37
2017-10-21T02:20:44.380Z,2.80
2017-10-21T02:23:10.776Z,2.40
2017-10-21T02:25:37.187Z,1.73
2017-10-21T02:28:03.582Z,2.13
2017-10-21T02:30:29.961Z,2.03
2017-10-21T02:32:57.830Z,2.13
2017-10-21T02:35:24.246Z,1.70
2017-10-21T02:37:50.620Z,1.97
2017-10-21T02:40:17.005Z,2.83
2017-10-21T02:42:44.113Z,2.27
2017-10-21T02:45:10.467Z,2.23
2017-10-21T02:47:36.856Z,1.73
2017-10-21T02:50:03.269Z,2.40
2017-10-21T02:52:29.648Z,2.33
2017-10-21T02:54:56.000Z,2.70
2017-10-21T02:57:22.448Z,1.97
2017-10-21T02:59:48.857Z,2.30
2017-10-21T03:02:15.280Z,2.47
2017-10-21T03:04:41.645Z,3.63
2017-10-21T03:07:08.735Z,1.97
2017-10-21T03:09:35.137Z,1.70
2017-10-21T03:12:02.264Z,2.33
2017-10-21T03:14:28.664Z,2.10
2017-10-21T03:16:55.772Z,2.00
2017-10-21T03:19:22.117Z,2.90
2017-10-21T03:21:48.504Z,2.20
2017-10-21T03:24:14.880Z,2.53
2017-10-21T03:26:41.233Z,1.77
2017-10-21T03:29:07.601Z,3.30
2017-10-21T03:31:34.780Z,2.27
2017-10-21T03:34:01.433Z,2.80
2017-10-21T03:36:28.560Z,3.20
2017-10-21T03:38:55.712Z,2.43
2017-10-21T03:41:22.088Z,1.83
2017-10-21T03:43:49.220Z,2.37
2017-10-21T03:46:15.579Z,2.77
2017-10-21T03:48:41.937Z,2.17
2017-10-21T03:51:09.024Z,2.00
2017-10-21T03:53:35.408Z,2.33
2017-10-21T03:56:01.780Z,2.53
2017-10-21T03:58:28.970Z,2.40
2017-10-21T04:00:55.304Z,2.87
2017-10-21T04:03:22.385Z,4.10
2017-10-21T04:05:48.761Z,2.37
2017-10-21T04:08:15.117Z,3.00
2017-10-21T04:10:41.500Z,2.40
2017-10-21T04:13:07.849Z,3.20
2017-10-21T04:15:34.229Z,2.40
2017-10-21T04:18:00.653Z,2.60
2017-10-21T04:20:27.056Z,2.77
2017-10-21T04:22:54.860Z,2.97
2017-10-21T04:25:21.996Z,3.47
2017-10-21T04:27:48.319Z,2.73
2017-10-21T04:30:15.422Z,3.00
2017-10-21T04:32:42.525Z,3.13
2017-10-21T04:35:08.840Z,3.07
2017-10-21T04:37:35.185Z,3.60
2017-10-21T04:40:01.549Z,2.23
2017-10-21T04:42:27.892Z,3.40
2017-10-21T04:44:54.247Z,2.80
2017-10-21T04:47:20.581Z,3.40
2017-10-21T04:49:46.929Z,3.03
2017-10-21T04:52:14.029Z,3.17
2017-10-21T04:54:41.197Z,3.00
2017-10-21T04:57:08.748Z,2.60
2017-10-21T04:59:35.156Z,3.40
2017-10-21T05:02:01.513Z,3.63
2017-10-21T05:04:27.964Z,2.97
2017-10-21T05:06:54.296Z,3.17
2017-10-21T05:09:20.638Z,2.90
2017-10-21T05:11:46.976Z,4.23
2017-10-21T05:14:13.333Z,3.10
2017-10-21T05:16:39.764Z,3.00
2017-10-21T05:19:06.882Z,3.30
2017-10-21T05:21:33.293Z,2.90
2017-10-21T05:24:01.119Z,2.70
2017-10-21T05:26:27.487Z,3.47
2017-10-21T05:28:53.853Z,3.20
2017-10-21T05:31:21.656Z,2.90
2017-10-21T05:33:48.031Z,2.30
2017-10-21T05:36:15.200Z,3.07
2017-10-21T05:38:41.751Z,2.10
2017-10-21T05:41:08.113Z,3.37
2017-10-21T05:43:34.539Z,2.30
2017-10-21T05:46:00.995Z,2.87
2017-10-21T05:48:27.465Z,2.30
2017-10-21T05:50:53.975Z,2.23
2017-10-21T05:53:20.570Z,2.80
2017-10-21T05:55:47.018Z,2.77
2017-10-21T05:58:13.460Z,2.97
2017-10-21T06:00:39.950Z,2.20
2017-10-21T06:03:06.420Z,4.40
2017-10-21T06:05:34.306Z,4.03
2017-10-21T06:08:02.283Z,3.23
2017-10-21T06:10:29.599Z,2.83
2017-10-21T06:12:56.917Z,3.07
2017-10-21T06:15:24.098Z,3.10
2017-10-21T06:17:50.920Z,2.77
2017-10-21T06:20:17.381Z,1.90
2017-10-21T06:22:43.825Z,3.17
2017-10-21T06:25:10.261Z,3.43
2017-10-21T06:27:36.720Z,3.13
2017-10-21T06:30:03.978Z,3.37
2017-10-21T06:32:31.593Z,4.43
2017-10-21T06:34:58.029Z,3.20
2017-10-21T06:37:24.610Z,3.97
2017-10-21T06:39:51.063Z,2.60
2017-10-21T06:42:17.875Z,2.50
2017-10-21T06:44:45.176Z,2.47
2017-10-21T06:47:11.663Z,2.80
2017-10-21T06:49:38.140Z,3.10
2017-10-21T06:52:04.675Z,2.93
2017-10-21T06:54:32.232Z,2.80
2017-10-21T06:57:00.497Z,2.47
2017-10-21T06:59:27.455Z,3.50
2017-10-21T07:01:55.521Z,2.90
2017-10-21T07:04:22.010Z,3.03
2017-10-21T07:06:48.468Z,2.50
2017-10-21T07:09:14.898Z,3.70
2017-10-21T07:11:41.512Z,3.17
2017-10-21T07:14:08.709Z,4.60
2017-10-21T07:16:35.246Z,2.90
2017-10-21T07:19:02.525Z,3.60
2017-10-21T07:21:29.141Z,3.37
2017-10-21T07:23:55.816Z,3.80
2017-10-21T07:26:29.242Z,3.27
2017-10-21T07:28:55.691Z,3.70
2017-10-21T07:31:22.973Z,3.37
2017-10-21T07:33:49.452Z,3.73
2017-10-21T07:36:16.024Z,3.10
2017-10-21T07:38:42.473Z,5.60
2017-10-21T07:41:09.600Z,5.53
2017-10-21T07:43:36.072Z,3.47
2017-10-21T07:46:02.555Z,4.60
2017-10-21T07:48:29.009Z,4.43
2017-10-21T07:50:55.436Z,4.77
2017-10-21T07:53:21.874Z,4.87
2017-10-21T07:55:50.027Z,5.60
2017-10-21T07:58:17.295Z,5.37
2017-10-21T08:00:43.739Z,4.57
2017-10-21T08:03:11.652Z,6.17
2017-10-21T08:05:38.363Z,5.63
2017-10-21T08:08:04.782Z,6.20
2017-10-21T08:10:32.250Z,6.97
2017-10-21T08:13:00.377Z,6.07
2017-10-21T08:15:26.867Z,5.33
2017-10-21T08:17:53.295Z,6.07
2017-10-21T08:20:19.739Z,5.17
2017-10-21T08:22:46.145Z,5.83
2017-10-21T08:25:13.362Z,6.10
2017-10-21T08:27:40.513Z,7.40
2017-10-21T08:30:06.992Z,7.47
2017-10-21T08:32:33.504Z,6.43
2017-10-21T08:35:00.021Z,7.80
2017-10-21T08:37:26.480Z,6.70
2017-10-21T08:39:55.691Z,6.80
2017-10-21T08:42:22.220Z,7.67
2017-10-21T08:44:50.476Z,7.23
2017-10-21T08:47:16.892Z,6.63
2017-10-21T08:49:44.117Z,7.43
2017-10-21T08:52:10.498Z,8.00
2017-10-21T08:54:36.961Z,7.40
2017-10-21T08:57:03.394Z,9.50
2017-10-21T08:59:29.966Z,8.73
2017-10-21T09:01:56.417Z,9.03
2017-10-21T09:04:25.047Z,8.07
2017-10-21T09:06:51.465Z,7.17
2017-10-21T09:09:18.720Z,6.27
2017-10-21T09:11:45.144Z,7.90
2017-10-21T09:14:12.425Z,7.50
2017-10-21T09:16:39.572Z,7.30
2017-10-21T09:19:09.622Z,9.90
2017-10-21T09:21:36.145Z,8.90
2017-10-21T09:24:03.139Z,7.50
2017-10-21T09:26:30.090Z,8.80
2017-10-21T09:28:57.602Z,9.07
2017-10-21T09:31:25.355Z,8.83
2017-10-21T09:33:51.981Z,8.63
2017-10-21T09:36:18.972Z,7.70
2017-10-21T09:38:46.608Z,7.43
2017-10-21T09:41:13.616Z,7.67
2017-10-21T09:43:40.963Z,7.47
2017-10-21T09:46:08.284Z,5.80
2017-10-21T09:48:35.724Z,6.97
2017-10-21T09:51:03.254Z,8.07
2017-10-21T09:53:30.368Z,7.10
2017-10-21T09:55:57.437Z,5.77
2017-10-21T09:58:25.463Z,7.20
2017-10-21T10:00:52.800Z,6.33
2017-10-21T10:03:20.813Z,7.53
2017-10-21T10:05:50.336Z,7.20
2017-10-21T10:08:17.375Z,7.43
2017-10-21T10:10:44.412Z,7.50
2017-10-21T10:13:11.740Z,7.37
2017-10-21T10:15:38.369Z,6.87
2017-10-21T10:18:04.846Z,7.50
2017-10-21T10:20:31.372Z,7.50
2017-10-21T10:22:57.914Z,7.60
2017-10-21T10:25:25.162Z,5.87
2017-10-21T10:27:51.579Z,5.60
2017-10-21T10:30:20.821Z,3.73
2017-10-21T10:32:47.313Z,3.53
2017-10-21T10:35:13.741Z,3.43
2017-10-21T10:37:41.083Z,2.00
2017-10-21T10:40:07.743Z,3.00
2017-10-21T10:42:35.007Z,2.47
2017-10-21T10:45:01.478Z,2.27
2017-10-21T10:47:27.901Z,2.37
2017-10-21T10:49:54.306Z,2.17
2017-10-21T10:52:20.776Z,2.70
2017-10-21T10:54:47.179Z,2.30
2017-10-21T10:57:14.295Z,2.43
2017-10-21T10:59:40.813Z,2.50
2017-10-21T11:02:07.306Z,2.00
2017-10-21T11:04:33.773Z,2.10
2017-10-21T11:07:00.213Z,2.17
2017-10-21T11:09:26.653Z,2.33
2017-10-21T11:11:53.973Z,2.00
2017-10-21T11:14:21.170Z,2.30
2017-10-21T11:16:47.642Z,1.80
2017-10-21T11:19:14.088Z,1.73
2017-10-21T11:21:40.529Z,2.00
2017-10-21T11:24:07.689Z,2.40
2017-10-21T11:26:34.844Z,2.07
2017-10-21T11:29:01.221Z,1.70
2017-10-21T11:31:27.739Z,2.43
2017-10-21T11:33:54.165Z,2.33
2017-10-21T11:36:20.556Z,2.10
2017-10-21T11:38:46.964Z,2.20
2017-10-21T11:41:13.427Z,1.87
2017-10-21T11:43:42.446Z,1.57
2017-10-21T11:46:08.985Z,2.43
2017-10-21T11:48:35.441Z,2.33
2017-10-21T11:51:01.889Z,1.63
2017-10-21T11:53:28.363Z,1.60
2017-10-21T11:55:54.784Z,1.90
2017-10-21T11:58:21.200Z,1.40
2017-10-21T12:00:47.796Z,1.30
2017-10-21T12:03:14.232Z,1.70
2017-10-21T12:05:40.764Z,1.67
2017-10-21T12:08:07.243Z,1.90
2017-10-21T12:10:33.940Z,1.50
2017-10-21T12:13:17.321Z,1.70
2017-10-21T12:15:43.790Z,1.60
2017-10-21T12:18:10.272Z,1.40
2017-10-21T12:20:37.513Z,1.63
2017-10-21T12:23:04.728Z,1.40
2017-10-21T12:25:31.323Z,1.53
2017-10-21T12:27:58.690Z,1.10
2017-10-21T12:30:25.162Z,1.43
2017-10-21T12:32:52.291Z,1.20
2017-10-21T12:35:18.729Z,1.70
2017-10-21T12:37:45.181Z,2.13
2017-10-21T12:40:13.563Z,2.00
2017-10-21T12:42:40.051Z,1.57
2017-10-21T12:45:06.449Z,1.90
2017-10-21T12:47:32.857Z,1.67
2017-10-21T12:49:59.272Z,1.60
2017-10-21T12:52:25.704Z,1.30
2017-10-21T12:54:52.084Z,1.57
2017-10-21T12:57:18.464Z,1.50
2017-10-21T12:59:44.892Z,1.60
2017-10-21T13:02:11.323Z,1.87
2017-10-21T13:04:37.817Z,2.00
2017-10-21T13:07:04.935Z,1.30
2017-10-21T13:09:32.169Z,1.90
2017-10-21T13:11:58.602Z,1.80
2017-10-21T13:14:28.598Z,1.80
2017-10-21T13:16:55.087Z,1.90
2017-10-21T13:19:21.548Z,1.50
2017-10-21T13:21:48.782Z,1.37
2017-10-21T13:24:15.980Z,1.47
2017-10-21T13:26:43.282Z,1.97
2017-10-21T13:29:10.465Z,1.70
2017-10-21T13:31:36.972Z,1.57
2017-10-21T13:34:03.368Z,2.00
2017-10-21T13:36:29.757Z,1.60
2017-10-21T13:38:56.180Z,1.83
2017-10-21T13:41:22.624Z,1.80
2017-10-21T13:43:56.712Z,2.23
2017-10-21T13:46:23.269Z,1.97
2017-10-21T13:48:49.688Z,1.20
2017-10-21T13:51:17.012Z,1.43
2017-10-21T13:53:43.450Z,1.70
2017-10-21T13:56:09.927Z,2.47
2017-10-21T13:58:36.345Z,1.83
2017-10-21T14:01:02.829Z,1.40
2017-10-21T14:03:29.375Z,1.40
2017-10-21T14:05:55.797Z,1.50
2017-10-21T14:08:23.083Z,2.10
2017-10-21T14:10:49.598Z,2.33
2017-10-21T14:13:16.065Z,1.30
2017-10-21T14:15:42.601Z,1.90
2017-10-21T14:18:11.059Z,1.73
2017-10-21T14:20:38.904Z,1.53
2017-10-21T14:23:05.955Z,1.77
2017-10-21T14:25:32.710Z,1.60
2017-10-21T14:27:59.173Z,1.30
2017-10-21T14:30:25.617Z,1.70
2017-10-21T14:32:52.090Z,2.00
2017-10-21T14:35:18.493Z,2.30
2017-10-21T14:37:45.221Z,1.60
2017-10-21T14:40:11.617Z,1.57
2017-10-21T14:42:38.896Z,1.70
2017-10-21T14:45:05.348Z,1.60
2017-10-21T14:47:32.656Z,2.00
2017-10-21T14:49:59.108Z,1.50
2017-10-21T14:52:25.548Z,1.80
2017-10-21T14:54:52.705Z,1.60
2017-10-21T14:57:19.164Z,1.80
2017-10-21T14:59:45.688Z,1.83
2017-10-21T15:02:12.272Z,1.50
2017-10-21T15:04:38.670Z,1.33
2017-10-21T15:07:05.914Z,1.37
2017-10-21T15:09:32.361Z,1.93
2017-10-21T15:11:58.944Z,2.10
2017-10-21T15:14:25.409Z,1.73
2017-10-21T15:16:52.213Z,1.50
2017-10-21T15:19:18.616Z,1.87
2017-10-21T15:21:45.239Z,1.90
2017-10-21T15:24:12.205Z,1.10
2017-10-21T15:26:38.751Z,1.63
2017-10-21T15:29:05.985Z,1.40
2017-10-21T15:31:32.477Z,1.40
2017-10-21T15:33:58.917Z,2.03
2017-10-21T15:36:25.363Z,2.50
2017-10-21T15:38:51.905Z,2.50
2017-10-21T15:41:18.548Z,1.80
2017-10-21T15:43:45.184Z,2.00
2017-10-21T15:46:11.806Z,2.80
2017-10-21T15:48:39.582Z,2.07
2017-10-21T15:51:06.603Z,1.80
2017-10-21T15:53:34.496Z,2.07
2017-10-21T15:56:02.170Z,1.83
2017-10-21T15:58:29.320Z,1.90
2017-10-21T16:00:56.195Z,2.20
2017-10-21T16:03:23.139Z,1.57
2017-10-21T16:05:50.307Z,3.17
2017-10-21T16:08:17.522Z,2.00
2017-10-21T16:10:45.282Z,3.40
2017-10-21T16:13:12.086Z,2.37
2017-10-21T16:15:40.680Z,2.60
2017-10-21T16:18:07.264Z,1.50
2017-10-21T16:20:34.236Z,1.60
2017-10-21T16:23:00.971Z,1.33
2017-10-21T16:25:27.395Z,3.13
2017-10-21T16:27:54.713Z,1.97
2017-10-21T16:30:21.294Z,1.70
2017-10-21T16:32:48.493Z,1.50
2017-10-21T16:35:14.894Z,2.30
2017-10-21T16:37:42.311Z,1.90
2017-10-21T16:40:08.732Z,1.77
2017-10-21T16:42:35.644Z,2.00
2017-10-21T16:45:02.705Z,1.70
2017-10-21T16:47:30.433Z,2.13
2017-10-21T16:49:56.908Z,1.63
2017-10-21T16:52:23.384Z,2.07
2017-10-21T16:54:50.161Z,2.90
2017-10-21T16:57:16.677Z,1.73
2017-10-21T16:59:43.177Z,2.43
2017-10-21T17:02:10.292Z,2.50
2017-10-21T17:04:36.781Z,2.50
2017-10-21T17:07:03.262Z,2.10
2017-10-21T17:09:30.405Z,2.20
2017-10-21T17:11:56.753Z,2.60
2017-10-21T17:14:23.150Z,2.50
2017-10-21T17:16:49.557Z,2.17
2017-10-21T17:19:16.012Z,2.83
2017-10-21T17:21:42.394Z,3.07
2017-10-21T17:24:08.805Z,1.77
2017-10-21T17:26:35.184Z,1.87
2017-10-21T17:29:01.543Z,1.80
2017-10-21T17:31:28.023Z,3.47
2017-10-21T17:33:54.456Z,4.57
2017-10-21T17:36:21.648Z,3.67
2017-10-21T17:38:48.736Z,2.20
2017-10-21T17:41:15.333Z,2.50
2017-10-21T17:43:41.776Z,2.40
2017-10-21T17:46:09.622Z,3.53
2017-10-21T17:48:36.097Z,2.27
2017-10-21T17:51:03.280Z,2.30
2017-10-21T17:53:30.449Z,2.37
2017-10-21T17:55:56.837Z,4.03
2017-10-21T17:58:23.980Z,2.60
2017-10-21T18:00:50.296Z,2.20
2017-10-21T18:03:17.639Z,2.37
2017-10-21T18:05:44.809Z,3.40
2017-10-21T18:08:11.260Z,2.50
2017-10-21T18:10:38.337Z,2.77
2017-10-21T18:13:04.797Z,3.30
2017-10-21T18:15:31.241Z,2.57
2017-10-21T18:17:57.640Z,2.70
2017-10-21T18:20:24.837Z,2.80
2017-10-21T18:22:51.237Z,3.40
2017-10-21T18:25:17.697Z,3.20
2017-10-21T18:27:44.125Z,2.20
2017-10-21T18:30:11.307Z,2.50
2017-10-21T18:32:37.672Z,2.00
2017-10-21T18:35:04.038Z,3.60
2017-10-21T18:37:30.412Z,3.30
2017-10-21T18:39:56.780Z,3.43
2017-10-21T18:42:23.090Z,1.90
2017-10-21T18:44:49.448Z,2.33
2017-10-21T18:47:15.805Z,2.30
2017-10-21T18:49:42.144Z,2.70
2017-10-21T18:52:08.693Z,5.17
2017-10-21T18:54:35.785Z,3.20
2017-10-21T18:57:02.179Z,3.50
2017-10-21T18:59:29.322Z,3.20
2017-10-21T19:01:56.583Z,3.20
2017-10-21T19:04:22.946Z,3.70
2017-10-21T19:06:49.361Z,2.27
2017-10-21T19:09:15.700Z,3.73
2017-10-21T19:11:42.065Z,2.43
2017-10-21T19:14:08.421Z,2.50
2017-10-21T19:16:34.833Z,2.33
2017-10-21T19:19:01.216Z,3.20
2017-10-21T19:21:27.559Z,3.10
2017-10-21T19:23:53.912Z,2.80
2017-10-21T19:26:20.995Z,2.70
2017-10-21T19:28:47.524Z,2.67
2017-10-21T19:31:13.910Z,2.77
2017-10-21T19:33:40.377Z,3.10
2017-10-21T19:36:06.860Z,3.67
2017-10-21T19:38:33.277Z,3.20
2017-10-21T19:41:00.471Z,3.60
2017-10-21T19:43:26.916Z,3.47
2017-10-21T19:45:53.290Z,3.47
2017-10-21T19:48:19.651Z,4.17
2017-10-21T19:50:46.046Z,3.40
2017-10-21T19:53:12.481Z,3.33
2017-10-21T19:55:38.943Z,3.10
2017-10-21T19:58:05.372Z,2.00
2017-10-21T20:00:32.546Z,3.90
2017-10-21T20:02:59.636Z,3.10
2017-10-21T20:05:26.000Z,2.47
2017-10-21T20:07:52.553Z,3.70
2017-10-21T20:10:18.996Z,2.50
2017-10-21T20:12:45.361Z,2.90
2017-10-21T20:15:11.761Z,3.27
2017-10-21T20:17:38.208Z,2.50
2017-10-21T20:20:04.586Z,2.70
2017-10-21T20:22:31.058Z,3.57
2017-10-21T20:24:58.141Z,3.10
2017-10-21T20:27:24.485Z,2.30
2017-10-21T20:29:50.969Z,2.77
2017-10-21T20:32:18.169Z,3.10
2017-10-21T20:34:44.632Z,3.40
2017-10-21T20:37:11.958Z,3.50
2017-10-21T20:39:39.108Z,2.27
2017-10-21T20:42:05.597Z,4.27
2017-10-21T20:44:31.978Z,3.63
2017-10-21T20:46:59.148Z,3.60
2017-10-21T20:49:25.564Z,2.60
2017-10-21T20:51:51.981Z,3.00
2017-10-21T20:54:18.365Z,2.63
2017-10-21T20:56:44.792Z,2.97
2017-10-21T20:59:11.170Z,3.33
2017-10-21T21:01:37.560Z,3.50
2017-10-21T21:04:04.013Z,3.13
2017-10-21T21:06:30.468Z,2.70
2017-10-21T21:08:56.890Z,3.50
2017-10-21T21:11:23.286Z,4.00
2017-10-21T21:13:49.661Z,3.70
2017-10-21T21:16:16.749Z,4.10
2017-10-21T21:18:43.163Z,3.43
2017-10-21T21:21:10.285Z,2.60
2017-10-21T21:23:36.745Z,2.83
2017-10-21T21:26:03.116Z,2.73
2017-10-21T21:28:30.940Z,2.70
2017-10-21T21:30:57.328Z,2.93
2017-10-21T21:33:24.467Z,2.53
2017-10-21T21:35:50.941Z,3.43
2017-10-21T21:38:18.056Z,2.90
2017-10-21T21:40:44.465Z,3.37
2017-10-21T21:43:10.859Z,2.53
2017-10-21T21:45:37.361Z,2.97
2017-10-21T21:48:03.791Z,3.97
2017-10-21T21:50:30.259Z,2.30
2017-10-21T21:52:56.785Z,2.47
2017-10-21T21:55:23.277Z,2.20
2017-10-21T21:57:49.660Z,2.50
2017-10-21T22:00:16.828Z,2.63
2017-10-21T22:02:43.237Z,3.10
2017-10-21T22:05:09.629Z,2.53
2017-10-21T22:07:35.973Z,3.30
2017-10-21T22:10:02.405Z,2.23
2017-10-21T22:12:28.828Z,2.20
2017-10-21T22:14:55.939Z,1.63
2017-10-21T22:17:22.327Z,2.80
2017-10-21T22:19:49.473Z,1.90
2017-10-21T22:22:15.968Z,2.20
2017-10-21T22:24:42.380Z,2.63
2017-10-21T22:27:08.728Z,1.83
2017-10-21T22:29:35.156Z,3.93
2017-10-21T22:32:01.512Z,2.70
2017-10-21T22:34:28.665Z,2.17
2017-10-21T22:36:55.025Z,2.70
2017-10-21T22:39:21.385Z,2.53
2017-10-21T22:41:48.510Z,2.40
2017-10-21T22:44:14.892Z,2.23
2017-10-21T22:46:41.305Z,2.00
2017-10-21T22:49:07.682Z,2.03
2017-10-21T22:51:34.104Z,1.80
2017-10-21T22:54:01.350Z,2.47
2017-10-21T22:56:27.756Z,1.60
2017-10-21T22:58:54.104Z,2.17
2017-10-21T23:01:20.541Z,3.40
2017-10-21T23:03:46.944Z,2.30
2017-10-21T23:06:14.057Z,1.87
2017-10-21T23:08:40.510Z,1.97
2017-10-21T23:11:06.876Z,1.63
2017-10-21T23:13:34.008Z,2.40
2017-10-21T23:16:00.381Z,2.20
2017-10-21T23:18:27.560Z,2.70
2017-10-21T23:20:53.987Z,2.20
2017-10-21T23:23:20.377Z,1.60
2017-10-21T23:25:47.649Z,2.00
2017-10-21T23:28:15.641Z,2.33
2017-10-21T23:30:41.994Z,3.27
2017-10-21T23:33:08.365Z,1.90
2017-10-21T23:35:34.739Z,2.10
2017-10-21T23:38:01.076Z,1.70
2017-10-21T23:40:28.252Z,2.60
2017-10-21T23:42:54.563Z,2.27
2017-10-21T23:45:20.913Z,1.87
2017-10-21T23:47:47.236Z,1.93
2017-10-21T23:50:13.620Z,2.10
2017-10-21T23:52:39.952Z,1.63
2017-10-21T23:55:07.089Z,2.10
2017-10-21T23:57:33.409Z,1.60
2017-10-21T23:59:59.783Z,1.63
